sensor_id;sensor_type;location;lat;lon;timestamp;pressure;altitude;pressure_sealevel;temperature;humidity
65173;BME280;51758;52.218;5.172;2023-01-29T00:01:12;101932.41;;;3.35;100.00
65173;BME280;51758;52.218;5.172;2023-01-29T00:03:40;101894.34;;;3.13;100.00
65173;BME280;51758;52.218;5.172;2023-01-29T00:06:08;101931.78;;;3.44;100.00
65173;BME280;51758;52.218;5.172;2023-01-29T00:08:38;101924.38;;;3.40;100.00
65173;BME280;51758;52.218;5.172;2023-01-29T00:11:07;101925.09;;;3.29;100.00
65173;BME280;51758;52.218;5.172;2023-01-29T00:13:35;101929.00;;;3.35;100.00
65173;BME280;51758;52.218;5.172;2023-01-29T00:16:03;101901.88;;;3.16;100.00
65173;BME280;51758;52.218;5.172;2023-01-29T00:18:31;101922.72;;;3.39;100.00
65173;BME280;51758;52.218;5.172;2023-01-29T00:20:59;101919.94;;;3.42;100.00
65173;BME280;51758;52.218;5.172;2023-01-29T00:23:26;101923.75;;;3.36;100.00
65173;BME280;51758;52.218;5.172;2023-01-29T00:25:58;101928.19;;;3.34;100.00
65173;BME280;51758;52.218;5.172;2023-01-29T00:28:25;101922.59;;;3.40;100.00
65173;BME280;51758;52.218;5.172;2023-01-29T00:30:53;101929.72;;;3.49;100.00
65173;BME280;51758;52.218;5.172;2023-01-29T00:33:21;101896.28;;;3.22;100.00
65173;BME280;51758;52.218;5.172;2023-01-29T00:35:48;101927.16;;;3.37;100.00
65173;BME280;51758;52.218;5.172;2023-01-29T00:38:16;101922.72;;;3.39;100.00
65173;BME280;51758;52.218;5.172;2023-01-29T00:40:44;101915.16;;;3.36;100.00
65173;BME280;51758;52.218;5.172;2023-01-29T00:43:30;101911.75;;;3.35;100.00
65173;BME280;51758;52.218;5.172;2023-01-29T00:46:16;101905.56;;;3.38;100.00
65173;BME280;51758;52.218;5.172;2023-01-29T00:48:43;101907.94;;;3.41;100.00
65173;BME280;51758;52.218;5.172;2023-01-29T00:51:11;101905.25;;;3.30;100.00
65173;BME280;51758;52.218;5.172;2023-01-29T00:53:39;101898.56;;;3.27;100.00
65173;BME280;51758;52.218;5.172;2023-01-29T00:56:06;101902.47;;;3.33;100.00
65173;BME280;51758;52.218;5.172;2023-01-29T00:58:35;101896.19;;;3.24;100.00
65173;BME280;51758;52.218;5.172;2023-01-29T01:01:03;101890.81;;;3.27;100.00
65173;BME280;51758;52.218;5.172;2023-01-29T01:03:31;101887.50;;;3.25;100.00
65173;BME280;51758;52.218;5.172;2023-01-29T01:06:04;101853.78;;;3.03;100.00
65173;BME280;51758;52.218;5.172;2023-01-29T01:08:32;101804.66;;;2.79;100.00
65173;BME280;51758;52.218;5.172;2023-01-29T01:11:26;101880.81;;;3.22;100.00
65173;BME280;51758;52.218;5.172;2023-01-29T01:13:55;101873.25;;;3.19;100.00
65173;BME280;51758;52.218;5.172;2023-01-29T01:16:27;101877.91;;;3.27;100.00
65173;BME280;51758;52.218;5.172;2023-01-29T01:18:55;101886.88;;;3.34;100.00
65173;BME280;51758;52.218;5.172;2023-01-29T01:21:22;101895.66;;;3.32;100.00
65173;BME280;51758;52.218;5.172;2023-01-29T01:23:50;101899.28;;;3.42;100.00
65173;BME280;51758;52.218;5.172;2023-01-29T01:26:19;101906.69;;;3.46;100.00
65173;BME280;51758;52.218;5.172;2023-01-29T01:28:46;101905.84;;;3.46;100.00
65173;BME280;51758;52.218;5.172;2023-01-29T01:31:15;101916.28;;;3.44;100.00
65173;BME280;51758;52.218;5.172;2023-01-29T01:33:44;101914.44;;;3.46;100.00
65173;BME280;51758;52.218;5.172;2023-01-29T01:36:11;101924.00;;;3.57;100.00
65173;BME280;51758;52.218;5.172;2023-01-29T01:38:39;101923.81;;;3.60;100.00
65173;BME280;51758;52.218;5.172;2023-01-29T01:41:11;101917.44;;;3.53;100.00
65173;BME280;51758;52.218;5.172;2023-01-29T01:43:47;101920.84;;;3.53;100.00
65173;BME280;51758;52.218;5.172;2023-01-29T01:46:16;101912.56;;;3.48;100.00
65173;BME280;51758;52.218;5.172;2023-01-29T01:48:46;101911.34;;;3.41;100.00
65173;BME280;51758;52.218;5.172;2023-01-29T01:51:16;101915.78;;;3.52;100.00
65173;BME280;51758;52.218;5.172;2023-01-29T01:53:51;101920.84;;;3.53;100.00
65173;BME280;51758;52.218;5.172;2023-01-29T01:56:24;101921.66;;;3.54;100.00
65173;BME280;51758;52.218;5.172;2023-01-29T01:58:54;101929.41;;;3.54;100.00
65173;BME280;51758;52.218;5.172;2023-01-29T02:01:25;101933.13;;;3.50;100.00
65173;BME280;51758;52.218;5.172;2023-01-29T02:03:58;101928.44;;;3.55;100.00
65173;BME280;51758;52.218;5.172;2023-01-29T02:06:46;101941.78;;;3.49;100.00
65173;BME280;51758;52.218;5.172;2023-01-29T02:09:34;101933.53;;;3.44;100.00
65173;BME280;51758;52.218;5.172;2023-01-29T02:12:07;101926.94;;;3.40;100.00
65173;BME280;51758;52.218;5.172;2023-01-29T02:14:36;101932.41;;;3.48;100.00
65173;BME280;51758;52.218;5.172;2023-01-29T02:17:07;101922.78;;;3.50;100.00
65173;BME280;51758;52.218;5.172;2023-01-29T02:19:45;101919.50;;;3.35;100.00
65173;BME280;51758;52.218;5.172;2023-01-29T02:22:26;101916.69;;;3.51;100.00
65173;BME280;51758;52.218;5.172;2023-01-29T02:25:12;101926.31;;;3.49;100.00
65173;BME280;51758;52.218;5.172;2023-01-29T02:28:15;101930.34;;;3.40;100.00
65173;BME280;51758;52.218;5.172;2023-01-29T02:30:52;101930.13;;;3.43;100.00
65173;BME280;51758;52.218;5.172;2023-01-29T02:33:30;101940.78;;;3.39;100.00
65173;BME280;51758;52.218;5.172;2023-01-29T02:36:10;101935.63;;;3.39;100.00
65173;BME280;51758;52.218;5.172;2023-01-29T02:38:44;101942.75;;;3.35;100.00
65173;BME280;51758;52.218;5.172;2023-01-29T02:41:15;101941.72;;;3.38;100.00
65173;BME280;51758;52.218;5.172;2023-01-29T02:43:51;101906.41;;;3.13;100.00
65173;BME280;51758;52.218;5.172;2023-01-29T02:46:27;101929.94;;;3.34;100.00
65173;BME280;51758;52.218;5.172;2023-01-29T02:49:00;101936.72;;;3.47;100.00
65173;BME280;51758;52.218;5.172;2023-01-29T02:51:35;101933.44;;;3.45;100.00
65173;BME280;51758;52.218;5.172;2023-01-29T02:54:07;101936.44;;;3.52;100.00
65173;BME280;51758;52.218;5.172;2023-01-29T02:56:41;101935.19;;;3.32;100.00
65173;BME280;51758;52.218;5.172;2023-01-29T02:59:16;101922.91;;;3.36;100.00
65173;BME280;51758;52.218;5.172;2023-01-29T03:01:47;101910.84;;;3.36;100.00
65173;BME280;51758;52.218;5.172;2023-01-29T03:04:20;101921.75;;;3.52;100.00
65173;BME280;51758;52.218;5.172;2023-01-29T03:06:53;101917.31;;;3.54;100.00
65173;BME280;51758;52.218;5.172;2023-01-29T03:09:29;101920.34;;;3.36;100.00
65173;BME280;51758;52.218;5.172;2023-01-29T03:12:04;101911.56;;;3.38;100.00
65173;BME280;51758;52.218;5.172;2023-01-29T03:14:48;101913.31;;;3.25;100.00
65173;BME280;51758;52.218;5.172;2023-01-29T03:17:38;101910.75;;;3.25;100.00
65173;BME280;51758;52.218;5.172;2023-01-29T03:20:11;101905.25;;;3.17;100.00
65173;BME280;51758;52.218;5.172;2023-01-29T03:22:45;101893.59;;;3.24;100.00
65173;BME280;51758;52.218;5.172;2023-01-29T03:25:17;101860.72;;;3.02;100.00
65173;BME280;51758;52.218;5.172;2023-01-29T03:28:05;101888.97;;;3.16;100.00
65173;BME280;51758;52.218;5.172;2023-01-29T03:30:54;101879.78;;;3.25;100.00
65173;BME280;51758;52.218;5.172;2023-01-29T03:33:44;101833.84;;;2.92;100.00
65173;BME280;51758;52.218;5.172;2023-01-29T03:36:17;101849.94;;;3.08;100.00
65173;BME280;51758;52.218;5.172;2023-01-29T03:38:47;101857.06;;;3.17;100.00
65173;BME280;51758;52.218;5.172;2023-01-29T03:41:22;101844.16;;;3.17;100.00
65173;BME280;51758;52.218;5.172;2023-01-29T03:43:56;101843.88;;;3.09;100.00
65173;BME280;51758;52.218;5.172;2023-01-29T03:46:37;101840.47;;;3.09;100.00
65173;BME280;51758;52.218;5.172;2023-01-29T03:49:13;101843.25;;;3.06;100.00
65173;BME280;51758;52.218;5.172;2023-01-29T03:51:52;101827.34;;;3.24;100.00
65173;BME280;51758;52.218;5.172;2023-01-29T03:54:25;101825.19;;;3.06;100.00
65173;BME280;51758;52.218;5.172;2023-01-29T03:57:00;101828.66;;;3.17;100.00
65173;BME280;51758;52.218;5.172;2023-01-29T03:59:35;101830.63;;;3.27;100.00
65173;BME280;51758;52.218;5.172;2023-01-29T04:02:10;101831.47;;;3.27;100.00
65173;BME280;51758;52.218;5.172;2023-01-29T04:04:42;101832.06;;;3.18;100.00
65173;BME280;51758;52.218;5.172;2023-01-29T04:07:15;101828.81;;;3.16;100.00
65173;BME280;51758;52.218;5.172;2023-01-29T04:09:47;101828.81;;;3.16;100.00
65173;BME280;51758;52.218;5.172;2023-01-29T04:12:20;101830.66;;;3.14;100.00
65173;BME280;51758;52.218;5.172;2023-01-29T04:14:51;101825.28;;;3.04;100.00
65173;BME280;51758;52.218;5.172;2023-01-29T04:17:26;101822.09;;;3.13;100.00
65173;BME280;51758;52.218;5.172;2023-01-29T04:19:58;101821.16;;;3.14;100.00
65173;BME280;51758;52.218;5.172;2023-01-29T04:22:30;101820.53;;;3.11;100.00
65173;BME280;51758;52.218;5.172;2023-01-29T04:24:58;101820.75;;;3.08;100.00
65173;BME280;51758;52.218;5.172;2023-01-29T04:27:32;101808.97;;;3.16;100.00
65173;BME280;51758;52.218;5.172;2023-01-29T04:30:25;101811.44;;;3.05;100.00
65173;BME280;51758;52.218;5.172;2023-01-29T04:33:09;101791.88;;;3.03;100.00
65173;BME280;51758;52.218;5.172;2023-01-29T04:35:50;101799.34;;;3.18;100.00
65173;BME280;51758;52.218;5.172;2023-01-29T04:38:21;101797.13;;;3.14;100.00
65173;BME280;51758;52.218;5.172;2023-01-29T04:40:58;101794.72;;;3.23;100.00
65173;BME280;51758;52.218;5.172;2023-01-29T04:43:39;101789.50;;;3.36;100.00
65173;BME280;51758;52.218;5.172;2023-01-29T04:46:13;101797.81;;;3.29;100.00
65173;BME280;51758;52.218;5.172;2023-01-29T04:48:55;101797.84;;;3.16;100.00
65173;BME280;51758;52.218;5.172;2023-01-29T04:51:34;101796.19;;;3.15;100.00
65173;BME280;51758;52.218;5.172;2023-01-29T04:54:08;101791.22;;;3.12;100.00
65173;BME280;51758;52.218;5.172;2023-01-29T04:56:45;101786.16;;;3.10;100.00
65173;BME280;51758;52.218;5.172;2023-01-29T04:59:18;101781.66;;;3.01;100.00
65173;BME280;51758;52.218;5.172;2023-01-29T05:01:49;101781.28;;;3.18;100.00
65173;BME280;51758;52.218;5.172;2023-01-29T05:04:19;101781.31;;;3.06;100.00
65173;BME280;51758;52.218;5.172;2023-01-29T05:06:48;101780.91;;;3.12;100.00
65173;BME280;51758;52.218;5.172;2023-01-29T05:09:16;101782.47;;;3.14;100.00
65173;BME280;51758;52.218;5.172;2023-01-29T05:11:45;101779.63;;;3.17;100.00
65173;BME280;51758;52.218;5.172;2023-01-29T05:14:17;101778.81;;;3.17;100.00
65173;BME280;51758;52.218;5.172;2023-01-29T05:16:49;101781.41;;;3.17;100.00
65173;BME280;51758;52.218;5.172;2023-01-29T05:19:19;101785.63;;;3.18;100.00
65173;BME280;51758;52.218;5.172;2023-01-29T05:21:47;101795.84;;;3.19;100.00
65173;BME280;51758;52.218;5.172;2023-01-29T05:24:17;101790.19;;;3.14;100.00
65173;BME280;51758;52.218;5.172;2023-01-29T05:26:47;101783.78;;;3.20;100.00
65173;BME280;51758;52.218;5.172;2023-01-29T05:29:33;101788.66;;;3.12;100.00
65173;BME280;51758;52.218;5.172;2023-01-29T05:32:01;101790.50;;;3.10;100.00
65173;BME280;51758;52.218;5.172;2023-01-29T05:34:30;101783.59;;;3.10;100.00
65173;BME280;51758;52.218;5.172;2023-01-29T05:36:58;101777.41;;;3.13;100.00
65173;BME280;51758;52.218;5.172;2023-01-29T05:39:25;101792.25;;;3.09;100.00
65173;BME280;51758;52.218;5.172;2023-01-29T05:41:53;101799.06;;;3.10;100.00
65173;BME280;51758;52.218;5.172;2023-01-29T05:44:21;101806.63;;;3.01;100.00
65173;BME280;51758;52.218;5.172;2023-01-29T05:46:48;101796.09;;;3.04;100.00
65173;BME280;51758;52.218;5.172;2023-01-29T05:49:16;101801.03;;;3.07;100.00
65173;BME280;51758;52.218;5.172;2023-01-29T05:51:47;101791.75;;;3.04;100.00
65173;BME280;51758;52.218;5.172;2023-01-29T05:54:14;101788.53;;;3.13;100.00
65173;BME280;51758;52.218;5.172;2023-01-29T05:56:42;101777.22;;;3.03;100.00
65173;BME280;51758;52.218;5.172;2023-01-29T05:59:10;101779.66;;;3.05;100.00
65173;BME280;51758;52.218;5.172;2023-01-29T06:01:37;101771.78;;;3.19;100.00
65173;BME280;51758;52.218;5.172;2023-01-29T06:04:05;101769.59;;;3.38;100.00
65173;BME280;51758;52.218;5.172;2023-01-29T06:06:33;101778.59;;;3.20;100.00
65173;BME280;51758;52.218;5.172;2023-01-29T06:09:02;101762.13;;;3.10;100.00
65173;BME280;51758;52.218;5.172;2023-01-29T06:11:30;101751.38;;;3.16;100.00
65173;BME280;51758;52.218;5.172;2023-01-29T06:13:57;101773.44;;;3.20;100.00
65173;BME280;51758;52.218;5.172;2023-01-29T06:16:25;101764.81;;;3.08;100.00
65173;BME280;51758;52.218;5.172;2023-01-29T06:18:53;101761.31;;;3.09;100.00
65173;BME280;51758;52.218;5.172;2023-01-29T06:21:20;101770.69;;;3.10;100.00
65173;BME280;51758;52.218;5.172;2023-01-29T06:23:48;101765.16;;;3.04;100.00
65173;BME280;51758;52.218;5.172;2023-01-29T06:26:19;101751.94;;;2.96;100.00
65173;BME280;51758;52.218;5.172;2023-01-29T06:28:47;101755.53;;;3.06;100.00
65173;BME280;51758;52.218;5.172;2023-01-29T06:31:15;101763.06;;;3.09;100.00
65173;BME280;51758;52.218;5.172;2023-01-29T06:34:04;101756.97;;;3.10;100.00
65173;BME280;51758;52.218;5.172;2023-01-29T06:36:31;101756.03;;;3.11;100.00
65173;BME280;51758;52.218;5.172;2023-01-29T06:38:59;101745.31;;;3.04;100.00
65173;BME280;51758;52.218;5.172;2023-01-29T06:41:28;101751.13;;;2.95;100.00
65173;BME280;51758;52.218;5.172;2023-01-29T06:43:56;101756.59;;;3.03;100.00
65173;BME280;51758;52.218;5.172;2023-01-29T06:46:23;101749.53;;;3.05;100.00
65173;BME280;51758;52.218;5.172;2023-01-29T06:48:51;101753.50;;;2.98;100.00
65173;BME280;51758;52.218;5.172;2023-01-29T06:51:19;101752.25;;;3.04;100.00
65173;BME280;51758;52.218;5.172;2023-01-29T06:53:48;101750.50;;;2.92;100.00
65173;BME280;51758;52.218;5.172;2023-01-29T06:56:15;101743.38;;;2.95;100.00
65173;BME280;51758;52.218;5.172;2023-01-29T06:58:44;101740.38;;;3.01;100.00
65173;BME280;51758;52.218;5.172;2023-01-29T07:01:12;101734.72;;;2.96;100.00
65173;BME280;51758;52.218;5.172;2023-01-29T07:03:59;101719.97;;;2.85;100.00
65173;BME280;51758;52.218;5.172;2023-01-29T07:06:28;101719.88;;;2.87;100.00
65173;BME280;51758;52.218;5.172;2023-01-29T07:08:56;101720.06;;;2.97;100.00
65173;BME280;51758;52.218;5.172;2023-01-29T07:11:24;101727.69;;;2.98;100.00
65173;BME280;51758;52.218;5.172;2023-01-29T07:13:53;101730.91;;;2.89;100.00
65173;BME280;51758;52.218;5.172;2023-01-29T07:16:20;101732.22;;;2.95;100.00
65173;BME280;51758;52.218;5.172;2023-01-29T07:18:48;101735.97;;;2.91;100.00
65173;BME280;51758;52.218;5.172;2023-01-29T07:21:16;101750.09;;;2.85;100.00
65173;BME280;51758;52.218;5.172;2023-01-29T07:23:44;101745.56;;;2.88;100.00
65173;BME280;51758;52.218;5.172;2023-01-29T07:26:11;101746.78;;;2.96;100.00
65173;BME280;51758;52.218;5.172;2023-01-29T07:28:39;101746.88;;;2.94;100.00
65173;BME280;51758;52.218;5.172;2023-01-29T07:31:11;101745.94;;;2.95;100.00
65173;BME280;51758;52.218;5.172;2023-01-29T07:33:41;101736.97;;;3.01;100.00
65173;BME280;51758;52.218;5.172;2023-01-29T07:36:10;101749.47;;;2.94;100.00
65173;BME280;51758;52.218;5.172;2023-01-29T07:38:38;101739.03;;;2.96;100.00
65173;BME280;51758;52.218;5.172;2023-01-29T07:41:06;101732.41;;;3.04;100.00
65173;BME280;51758;52.218;5.172;2023-01-29T07:43:33;101744.63;;;3.02;100.00
65173;BME280;51758;52.218;5.172;2023-01-29T07:46:02;101743.47;;;2.94;100.00
65173;BME280;51758;52.218;5.172;2023-01-29T07:48:31;101733.06;;;2.95;100.00
65173;BME280;51758;52.218;5.172;2023-01-29T07:50:59;101735.53;;;2.97;100.00
65173;BME280;51758;52.218;5.172;2023-01-29T07:53:27;101724.59;;;2.93;100.00
65173;BME280;51758;52.218;5.172;2023-01-29T07:55:55;101730.47;;;2.95;100.00
65173;BME280;51758;52.218;5.172;2023-01-29T07:58:23;101720.50;;;2.91;100.00
65173;BME280;51758;52.218;5.172;2023-01-29T08:00:50;101716.34;;;3.01;100.00
65173;BME280;51758;52.218;5.172;2023-01-29T08:03:19;101706.63;;;2.92;100.00
65173;BME280;51758;52.218;5.172;2023-01-29T08:05:48;101712.09;;;3.00;100.00
65173;BME280;51758;52.218;5.172;2023-01-29T08:08:16;101707.47;;;2.92;100.00
65173;BME280;51758;52.218;5.172;2023-01-29T08:10:44;101724.59;;;2.93;100.00
65173;BME280;51758;52.218;5.172;2023-01-29T08:13:12;101728.94;;;2.93;100.00
65173;BME280;51758;52.218;5.172;2023-01-29T08:15:41;101727.69;;;2.98;100.00
65173;BME280;51758;52.218;5.172;2023-01-29T08:18:09;101724.16;;;3.12;100.00
65173;BME280;51758;52.218;5.172;2023-01-29T08:20:37;101732.59;;;3.14;100.00
65173;BME280;51758;52.218;5.172;2023-01-29T08:23:09;101732.19;;;3.07;100.00
65173;BME280;51758;52.218;5.172;2023-01-29T08:25:38;101737.16;;;3.10;100.00
65173;BME280;51758;52.218;5.172;2023-01-29T08:28:06;101732.81;;;3.11;100.00
65173;BME280;51758;52.218;5.172;2023-01-29T08:30:35;101724.25;;;3.10;100.00
65173;BME280;51758;52.218;5.172;2023-01-29T08:33:03;101732.00;;;3.10;100.00
65173;BME280;51758;52.218;5.172;2023-01-29T08:35:30;101725.59;;;3.16;100.00
65173;BME280;51758;52.218;5.172;2023-01-29T08:37:59;101727.75;;;3.09;100.00
65173;BME280;51758;52.218;5.172;2023-01-29T08:40:31;101719.81;;;3.12;100.00
65173;BME280;51758;52.218;5.172;2023-01-29T08:42:59;101737.16;;;3.10;100.00
65173;BME280;51758;52.218;5.172;2023-01-29T08:45:28;101717.53;;;3.08;100.00
65173;BME280;51758;52.218;5.172;2023-01-29T08:47:56;101707.84;;;3.11;100.00
65173;BME280;51758;52.218;5.172;2023-01-29T08:50:24;101705.63;;;3.18;100.00
65173;BME280;51758;52.218;5.172;2023-01-29T08:52:56;101716.66;;;3.20;100.00
65173;BME280;51758;52.218;5.172;2023-01-29T08:55:24;101712.06;;;3.12;100.00
65173;BME280;51758;52.218;5.172;2023-01-29T08:57:53;101712.94;;;3.24;100.00
65173;BME280;51758;52.218;5.172;2023-01-29T09:00:22;101708.81;;;3.21;100.00
65173;BME280;51758;52.218;5.172;2023-01-29T09:02:50;101707.34;;;3.30;100.00
65173;BME280;51758;52.218;5.172;2023-01-29T09:05:18;101713.66;;;3.26;100.00
65173;BME280;51758;52.218;5.172;2023-01-29T09:07:46;101706.50;;;3.30;100.00
65173;BME280;51758;52.218;5.172;2023-01-29T09:10:14;101711.41;;;3.21;100.00
65173;BME280;51758;52.218;5.172;2023-01-29T09:12:42;101706.09;;;3.36;100.00
65173;BME280;51758;52.218;5.172;2023-01-29T09:15:11;101702.50;;;3.49;100.00
65173;BME280;51758;52.218;5.172;2023-01-29T09:17:39;101707.84;;;3.35;100.00
65173;BME280;51758;52.218;5.172;2023-01-29T09:20:09;101700.03;;;3.48;100.00
65173;BME280;51758;52.218;5.172;2023-01-29T09:22:37;101705.75;;;3.40;100.00
65173;BME280;51758;52.218;5.172;2023-01-29T09:25:06;101711.88;;;3.39;100.00
65173;BME280;51758;52.218;5.172;2023-01-29T09:27:34;101722.72;;;3.32;100.00
65173;BME280;51758;52.218;5.172;2023-01-29T09:30:02;101721.34;;;3.39;100.00
65173;BME280;51758;52.218;5.172;2023-01-29T09:32:32;101711.41;;;3.45;100.00
65173;BME280;51758;52.218;5.172;2023-01-29T09:35:19;101710.56;;;3.45;100.00
65173;BME280;51758;52.218;5.172;2023-01-29T09:37:47;101710.03;;;3.52;100.00
65173;BME280;51758;52.218;5.172;2023-01-29T09:40:22;101725.75;;;3.49;100.00
65173;BME280;51758;52.218;5.172;2023-01-29T09:42:54;101714.59;;;3.49;100.00
65173;BME280;51758;52.218;5.172;2023-01-29T09:45:26;101727.88;;;3.55;100.00
65173;BME280;51758;52.218;5.172;2023-01-29T09:47:58;101709.47;;;3.60;100.00
65173;BME280;51758;52.218;5.172;2023-01-29T09:50:30;101707.59;;;3.62;100.00
65173;BME280;51758;52.218;5.172;2023-01-29T09:53:02;101706.31;;;3.68;100.00
65173;BME280;51758;52.218;5.172;2023-01-29T09:55:34;101718.03;;;3.60;100.00
65173;BME280;51758;52.218;5.172;2023-01-29T09:58:06;101715.13;;;3.65;100.00
65173;BME280;51758;52.218;5.172;2023-01-29T10:00:54;101681.47;;;3.43;100.00
65173;BME280;51758;52.218;5.172;2023-01-29T10:03:40;101703.53;;;3.71;100.00
65173;BME280;51758;52.218;5.172;2023-01-29T10:06:32;101691.41;;;3.60;100.00
65173;BME280;51758;52.218;5.172;2023-01-29T10:09:32;101687.78;;;3.63;100.00
65173;BME280;51758;52.218;5.172;2023-01-29T10:12:18;101603.09;;;2.85;100.00
65173;BME280;51758;52.218;5.172;2023-01-29T10:14:57;101655.94;;;3.51;100.00
65173;BME280;51758;52.218;5.172;2023-01-29T10:17:43;101706.69;;;3.63;100.00
65173;BME280;51758;52.218;5.172;2023-01-29T10:20:30;101660.63;;;3.57;100.00
65173;BME280;51758;52.218;5.172;2023-01-29T10:23:12;101686.94;;;3.62;100.00
65173;BME280;51758;52.218;5.172;2023-01-29T10:25:44;101678.53;;;3.71;100.00
65173;BME280;51758;52.218;5.172;2023-01-29T10:28:16;101589.16;;;3.11;100.00
65173;BME280;51758;52.218;5.172;2023-01-29T10:30:48;101664.53;;;3.63;100.00
65173;BME280;51758;52.218;5.172;2023-01-29T10:33:20;101509.88;;;2.55;100.00
65173;BME280;51758;52.218;5.172;2023-01-29T10:35:55;101673.72;;;3.67;100.00
65173;BME280;51758;52.218;5.172;2023-01-29T10:38:33;101668.28;;;3.70;100.00
65173;BME280;51758;52.218;5.172;2023-01-29T10:41:18;101665.81;;;3.68;100.00
65173;BME280;51758;52.218;5.172;2023-01-29T10:44:00;101643.28;;;3.59;100.00
65173;BME280;51758;52.218;5.172;2023-01-29T10:46:44;101635.31;;;3.62;100.00
65173;BME280;51758;52.218;5.172;2023-01-29T10:49:23;101659.75;;;3.80;100.00
65173;BME280;51758;52.218;5.172;2023-01-29T10:52:05;101654.00;;;3.77;100.00
65173;BME280;51758;52.218;5.172;2023-01-29T10:54:47;101658.25;;;3.78;100.00
65173;BME280;51758;52.218;5.172;2023-01-29T10:57:25;101529.78;;;3.00;100.00
65173;BME280;51758;52.218;5.172;2023-01-29T11:00:04;101639.06;;;3.69;100.00
65173;BME280;51758;52.218;5.172;2023-01-29T11:02:42;101631.06;;;3.61;100.00
65173;BME280;51758;52.218;5.172;2023-01-29T11:05:18;101612.75;;;3.53;100.00
65173;BME280;51758;52.218;5.172;2023-01-29T11:07:54;101600.19;;;3.59;100.00
65173;BME280;51758;52.218;5.172;2023-01-29T11:10:26;101596.91;;;3.69;100.00
65173;BME280;51758;52.218;5.172;2023-01-29T11:12:55;101442.13;;;2.76;100.00
65173;BME280;51758;52.218;5.172;2023-01-29T11:15:26;101622.19;;;3.76;100.00
65173;BME280;51758;52.218;5.172;2023-01-29T11:18:07;101619.84;;;3.73;100.00
65173;BME280;51758;52.218;5.172;2023-01-29T11:20:39;101626.78;;;3.84;100.00
65173;BME280;51758;52.218;5.172;2023-01-29T11:23:22;101619.41;;;3.90;100.00
65173;BME280;51758;52.218;5.172;2023-01-29T11:25:52;101615.50;;;3.85;100.00
65173;BME280;51758;52.218;5.172;2023-01-29T11:28:38;101554.19;;;3.53;100.00
65173;BME280;51758;52.218;5.172;2023-01-29T11:31:17;101606.59;;;3.89;100.00
65173;BME280;51758;52.218;5.172;2023-01-29T11:33:46;101604.00;;;3.78;100.00
65173;BME280;51758;52.218;5.172;2023-01-29T11:36:24;101597.31;;;3.75;100.00
65173;BME280;51758;52.218;5.172;2023-01-29T11:39:17;101513.53;;;3.33;100.00
65173;BME280;51758;52.218;5.172;2023-01-29T11:41:49;101512.50;;;3.36;100.00
65173;BME280;51758;52.218;5.172;2023-01-29T11:44:25;101529.44;;;3.51;100.00
65173;BME280;51758;52.218;5.172;2023-01-29T11:47:06;101551.38;;;3.68;100.00
65173;BME280;51758;52.218;5.172;2023-01-29T11:49:38;101558.78;;;3.72;100.00
65173;BME280;51758;52.218;5.172;2023-01-29T11:52:09;101538.34;;;3.58;100.00
65173;BME280;51758;52.218;5.172;2023-01-29T11:54:43;101543.28;;;3.72;100.00
65173;BME280;51758;52.218;5.172;2023-01-29T11:57:23;101532.72;;;3.75;100.00
65173;BME280;51758;52.218;5.172;2023-01-29T11:59:54;101524.28;;;3.73;100.00
65173;BME280;51758;52.218;5.172;2023-01-29T12:02:27;101517.69;;;3.69;100.00
65173;BME280;51758;52.218;5.172;2023-01-29T12:05:00;101507.72;;;3.65;100.00
65173;BME280;51758;52.218;5.172;2023-01-29T12:07:29;101501.75;;;3.75;100.00
65173;BME280;51758;52.218;5.172;2023-01-29T12:09:59;101495.25;;;3.81;100.00
65173;BME280;51758;52.218;5.172;2023-01-29T12:12:32;101488.09;;;3.84;100.00
65173;BME280;51758;52.218;5.172;2023-01-29T12:15:04;101477.19;;;3.81;100.00
65173;BME280;51758;52.218;5.172;2023-01-29T12:17:35;101477.88;;;3.83;100.00
65173;BME280;51758;52.218;5.172;2023-01-29T12:20:10;101469.06;;;3.96;100.00
65173;BME280;51758;52.218;5.172;2023-01-29T12:22:46;101462.53;;;3.92;100.00
65173;BME280;51758;52.218;5.172;2023-01-29T12:25:21;101423.44;;;3.75;100.00
65173;BME280;51758;52.218;5.172;2023-01-29T12:27:55;101454.78;;;3.92;100.00
65173;BME280;51758;52.218;5.172;2023-01-29T12:30:29;101453.59;;;3.85;100.00
65173;BME280;51758;52.218;5.172;2023-01-29T12:33:02;101453.47;;;3.87;100.00
65173;BME280;51758;52.218;5.172;2023-01-29T12:35:35;101434.09;;;3.92;100.00
65173;BME280;51758;52.218;5.172;2023-01-29T12:38:18;101425.16;;;3.96;100.00
65173;BME280;51758;52.218;5.172;2023-01-29T12:40:50;101428.94;;;3.92;100.00
65173;BME280;51758;52.218;5.172;2023-01-29T12:43:25;101415.19;;;3.92;100.00
65173;BME280;51758;52.218;5.172;2023-01-29T12:45:54;101410.13;;;4.02;100.00
65173;BME280;51758;52.218;5.172;2023-01-29T12:48:26;101402.38;;;4.02;100.00
65173;BME280;51758;52.218;5.172;2023-01-29T12:50:58;101400.22;;;4.07;100.00
65173;BME280;51758;52.218;5.172;2023-01-29T12:53:32;101379.56;;;4.07;100.00
65173;BME280;51758;52.218;5.172;2023-01-29T12:56:08;101368.84;;;4.11;100.00
65173;BME280;51758;52.218;5.172;2023-01-29T12:58:40;101334.56;;;4.09;100.00
65173;BME280;51758;52.218;5.172;2023-01-29T13:01:13;101337.22;;;4.19;100.00
65173;BME280;51758;52.218;5.172;2023-01-29T13:03:48;101340.72;;;4.29;100.00
65173;BME280;51758;52.218;5.172;2023-01-29T13:06:20;101333.91;;;4.28;100.00
65173;BME280;51758;52.218;5.172;2023-01-29T13:08:50;101335.91;;;4.45;100.00
65173;BME280;51758;52.218;5.172;2023-01-29T13:11:25;101323.25;;;4.42;100.00
65173;BME280;51758;52.218;5.172;2023-01-29T13:13:58;101319.56;;;4.45;100.00
65173;BME280;51758;52.218;5.172;2023-01-29T13:16:29;101308.81;;;4.40;100.00
65173;BME280;51758;52.218;5.172;2023-01-29T13:19:01;101301.34;;;4.67;100.00